Buel, New York
Current Conditions -  °F | °C
As of 1:15 AM on Wednesday 28 Jan 2015 (Local Time) from KNY0 Reporting Station
Scattered Clouds Scattered Clouds  
Wind Chill: -21°   Ceiling: Unl
Heat Index: -13°   Visibility: 10mi
Dew Point: -20°   Wind: 10mph
Humidity: 57%   Direction: 260°W
Pressure: 29.85"   Gusts: NA
Location:  42.8548°N, 74.5942°W
Report Text: KNY0 280615Z AUTO 26009KT 10SM SCT120 M13/M20 A2985 RMK AO2 T11311200
Loading
Personal Weather Stations






























Interactive Weather Map New forecast layout! Learn more

10-Day Weather Forecast

Advertisements
Track Severe Weather on mobile